Auburndale, Florida
Current Conditions -  °F | °C
As of 1:53 PM on Saturday 25 Oct 2014 (Local Time) from KGIF Reporting Station
Clear Clear  
Wind Chill: 26°   Ceiling: Unl
Heat Index: 26°   Visibility: 10mi
Dew Point: 12°   Wind: 8mph
Humidity: 42%   Direction: 360°N
Pressure: 29.98"   Gusts: NA
Location:  28.06°N, 81.78°W
Report Text: KGIF 251753Z AUTO 36007KT 10SM CLR 26/12 A2998 RMK AO2 SLP148 T02610122 10261 20161 58014
Loading
Personal Weather Stations






























Interactive Weather Map
Tropical Storm Tracking
New forecast layout! Learn more

10-Day Weather Forecast

Advertisements
Track Severe Weather on mobile